Terminal Aerodrome Forecast
Issued by NWS Cleveland, OH

Home | Current Version | Previous Version | Text Only | Print | Product List | Glossary On
Versions: 1 2 3 4 5 6 7 8 9 10 11 12 13 14
000
FTUS41 KCLE 030728 AAA
TAFTOL
TAF AMD
KTOL 030728Z 0307/0406 21012KT 5SM -RA BR FEW010 BKN090
     FM031200 27010KT P6SM SCT050
     FM031900 27012KT P6SM SCT250=

USA.gov is the U.S. government's official web portal to all federal, state and local government web resources and services.